createdAt,value
2017-11-11T00:00:13.270Z,1006.55
2017-11-11T00:01:13.212Z,1006.58
2017-11-11T00:02:13.189Z,1006.59
2017-11-11T00:03:13.208Z,1006.54
2017-11-11T00:04:13.144Z,1006.57
2017-11-11T00:05:13.158Z,1006.57
2017-11-11T00:06:13.101Z,1006.55
2017-11-11T00:07:13.075Z,1006.62
2017-11-11T00:08:13.059Z,1006.63
2017-11-11T00:09:13.042Z,1006.63
2017-11-11T00:10:13.046Z,1006.60
2017-11-11T00:11:12.995Z,1006.66
2017-11-11T00:12:12.966Z,1006.68
2017-11-11T00:13:12.947Z,1006.70
2017-11-11T00:14:12.947Z,1006.63
2017-11-11T00:15:12.909Z,1006.63
2017-11-11T00:16:12.877Z,1006.66
2017-11-11T00:17:12.862Z,1006.62
2017-11-11T00:18:22.840Z,1006.57
2017-11-11T00:19:12.838Z,1006.63
2017-11-11T00:20:12.783Z,1006.65
2017-11-11T00:21:12.803Z,1006.66
2017-11-11T00:22:12.740Z,1006.64
2017-11-11T00:23:12.718Z,1006.65
2017-11-11T00:24:12.695Z,1006.62
2017-11-11T00:25:12.732Z,1006.65
2017-11-11T00:26:12.652Z,1006.67
2017-11-11T00:27:12.627Z,1006.65
2017-11-11T00:28:12.605Z,1006.67
2017-11-11T00:29:12.586Z,1006.59
2017-11-11T00:30:12.601Z,1006.65
2017-11-11T00:31:12.537Z,1006.64
2017-11-11T00:32:12.512Z,1006.64
2017-11-11T00:33:12.494Z,1006.66
2017-11-11T00:34:12.471Z,1006.66
2017-11-11T00:35:12.485Z,1006.69
2017-11-11T00:36:12.467Z,1006.67
2017-11-11T00:37:12.401Z,1006.68
2017-11-11T00:38:12.384Z,1006.65
2017-11-11T00:39:12.355Z,1006.70
2017-11-11T00:40:12.332Z,1006.65
2017-11-11T00:41:12.349Z,1006.67
2017-11-11T00:42:12.333Z,1006.68
2017-11-11T00:43:12.269Z,1006.69
2017-11-11T00:44:12.246Z,1006.67
2017-11-11T00:45:12.220Z,1006.65
2017-11-11T00:46:12.195Z,1006.66
2017-11-11T00:47:12.214Z,1006.61
2017-11-11T00:48:12.152Z,1006.65
2017-11-11T00:49:12.138Z,1006.62
2017-11-11T00:50:12.151Z,1006.62
2017-11-11T00:51:12.083Z,1006.67
2017-11-11T00:52:12.060Z,1006.64
2017-11-11T00:53:12.040Z,1006.64
2017-11-11T00:54:12.018Z,1006.68
2017-11-11T00:55:12.026Z,1006.63
2017-11-11T00:56:11.969Z,1006.67
2017-11-11T00:57:11.949Z,1006.67
2017-11-11T00:58:11.925Z,1006.65
2017-11-11T00:59:11.946Z,1006.66
2017-11-11T01:00:11.878Z,1006.65
2017-11-11T01:01:11.857Z,1006.60
2017-11-11T01:02:11.832Z,1006.61
2017-11-11T01:03:11.815Z,1006.63
2017-11-11T01:04:11.821Z,1006.58
2017-11-11T01:05:11.771Z,1006.54
2017-11-11T01:06:11.742Z,1006.57
2017-11-11T01:07:11.720Z,1006.55
2017-11-11T01:08:11.752Z,1006.59
2017-11-11T01:09:21.368Z,1006.57
2017-11-11T01:10:11.655Z,1006.64
2017-11-11T01:11:11.628Z,1006.58
2017-11-11T01:12:11.605Z,1006.50
2017-11-11T01:13:11.629Z,1006.46
2017-11-11T01:14:11.562Z,1006.50
2017-11-11T01:15:11.540Z,1006.43
2017-11-11T01:16:11.519Z,1006.37
2017-11-11T01:17:11.494Z,1006.35
2017-11-11T01:18:11.517Z,1006.38
2017-11-11T01:19:11.449Z,1006.43
2017-11-11T01:20:11.429Z,1006.36
2017-11-11T01:21:11.401Z,1006.39
2017-11-11T01:22:11.378Z,1006.38
2017-11-11T01:23:11.402Z,1006.35
2017-11-11T01:24:11.339Z,1006.28
2017-11-11T01:25:11.312Z,1006.32
2017-11-11T01:26:11.290Z,1006.33
2017-11-11T01:27:11.267Z,1006.34
2017-11-11T01:28:11.286Z,1006.30
2017-11-11T01:29:11.225Z,1006.33
2017-11-11T01:30:11.218Z,1006.33
2017-11-11T01:31:11.175Z,1006.35
2017-11-11T01:32:11.157Z,1006.33
2017-11-11T01:33:11.165Z,1006.29
2017-11-11T01:34:11.148Z,1006.30
2017-11-11T01:35:11.092Z,1006.34
2017-11-11T01:36:24.913Z,1006.27
2017-11-11T01:37:11.051Z,1006.29
2017-11-11T01:38:11.029Z,1006.26
2017-11-11T01:39:11.032Z,1006.24
2017-11-11T01:40:10.984Z,1006.24
2017-11-11T01:41:10.961Z,1006.21
2017-11-11T01:42:10.969Z,1006.19
2017-11-11T01:43:10.908Z,1006.14
2017-11-11T01:44:10.917Z,1006.13
2017-11-11T01:45:10.861Z,1006.11
2017-11-11T01:46:10.836Z,1006.10
2017-11-11T01:47:10.813Z,1006.03
2017-11-11T01:48:10.801Z,1006.09
2017-11-11T01:49:10.813Z,1006.09
2017-11-11T01:50:10.753Z,1006.13
2017-11-11T01:51:10.745Z,1006.08
2017-11-11T01:52:10.699Z,1005.97
2017-11-11T01:53:10.676Z,1005.97
2017-11-11T01:54:10.705Z,1005.99
2017-11-11T01:55:10.634Z,1005.98
2017-11-11T01:56:10.634Z,1005.99
2017-11-11T01:57:10.607Z,1005.95
2017-11-11T01:58:10.559Z,1005.91
2017-11-11T01:59:10.539Z,1005.88
2017-11-11T02:00:20.451Z,1005.81
2017-11-11T02:01:10.523Z,1005.82
2017-11-11T02:02:10.475Z,1005.84
2017-11-11T02:03:10.447Z,1005.79
2017-11-11T02:04:10.464Z,1005.81
2017-11-11T02:05:10.401Z,1005.79
2017-11-11T02:06:10.376Z,1005.78
2017-11-11T02:07:10.358Z,1005.83
2017-11-11T02:08:10.330Z,1005.84
2017-11-11T02:09:10.341Z,1005.91
2017-11-11T02:10:10.306Z,1005.85
2017-11-11T02:11:10.261Z,1005.78
2017-11-11T02:12:10.283Z,1005.83
2017-11-11T02:13:10.215Z,1005.83
2017-11-11T02:14:10.199Z,1005.79
2017-11-11T02:15:10.167Z,1005.77
2017-11-11T02:16:10.146Z,1005.75
2017-11-11T02:17:10.174Z,1005.74
2017-11-11T02:18:10.100Z,1005.70
2017-11-11T02:19:10.077Z,1005.70
2017-11-11T02:20:10.059Z,1005.72
2017-11-11T02:21:10.033Z,1005.69
2017-11-11T02:22:10.042Z,1005.69
2017-11-11T02:23:10.021Z,1005.70
2017-11-11T02:24:10.010Z,1005.67
2017-11-11T02:25:09.957Z,1005.68
2017-11-11T02:26:09.917Z,1005.65
2017-11-11T02:27:09.894Z,1005.70
2017-11-11T02:28:09.871Z,1005.68
2017-11-11T02:29:09.883Z,1005.66
2017-11-11T02:30:09.869Z,1005.64
2017-11-11T02:31:09.800Z,1005.66
2017-11-11T02:32:09.777Z,1005.67
2017-11-11T02:33:09.760Z,1005.70
2017-11-11T02:34:09.738Z,1005.67
2017-11-11T02:35:09.747Z,1005.66
2017-11-11T02:36:09.692Z,1005.64
2017-11-11T02:37:09.662Z,1005.60
2017-11-11T02:38:09.687Z,1005.62
2017-11-11T02:39:09.622Z,1005.66
2017-11-11T02:40:09.597Z,1005.63
2017-11-11T02:41:09.575Z,1005.64
2017-11-11T02:42:09.553Z,1005.67
2017-11-11T02:43:09.579Z,1005.68
2017-11-11T02:44:09.507Z,1005.70
2017-11-11T02:45:09.481Z,1005.75
2017-11-11T02:46:09.459Z,1005.67
2017-11-11T02:47:09.436Z,1005.84
2017-11-11T02:48:09.463Z,1005.96
2017-11-11T02:49:09.390Z,1005.91
2017-11-11T02:50:09.368Z,1005.85
2017-11-11T02:51:17.033Z,1005.68
2017-11-11T02:52:09.324Z,1005.71
2017-11-11T02:53:09.297Z,1005.74
2017-11-11T02:54:09.310Z,1005.73
2017-11-11T02:55:09.253Z,1005.65
2017-11-11T02:56:09.229Z,1005.61
2017-11-11T02:57:09.244Z,1005.66
2017-11-11T02:58:09.187Z,1005.61
2017-11-11T02:59:09.160Z,1005.59
2017-11-11T03:00:09.144Z,1005.58
2017-11-11T03:01:09.150Z,1005.57
2017-11-11T03:02:09.096Z,1005.51
2017-11-11T03:03:09.105Z,1005.55
2017-11-11T03:04:09.052Z,1005.49
2017-11-11T03:05:09.025Z,1005.41
2017-11-11T03:06:09.010Z,1005.41
2017-11-11T03:07:08.979Z,1005.41
2017-11-11T03:08:08.995Z,1005.53
2017-11-11T03:09:08.936Z,1005.52
2017-11-11T03:10:08.915Z,1005.46
2017-11-11T03:11:08.901Z,1005.49
2017-11-11T03:12:08.911Z,1005.47
2017-11-11T03:13:08.843Z,1005.41
2017-11-11T03:14:08.819Z,1005.39
2017-11-11T03:15:08.803Z,1005.37
2017-11-11T03:16:08.775Z,1005.39
2017-11-11T03:17:08.788Z,1005.40
2017-11-11T03:18:08.766Z,1005.40
2017-11-11T03:19:08.709Z,1005.34
2017-11-11T03:20:08.731Z,1005.28
2017-11-11T03:21:08.659Z,1005.35
2017-11-11T03:22:08.646Z,1005.32
2017-11-11T03:23:08.616Z,1005.27
2017-11-11T03:24:08.598Z,1005.33
2017-11-11T03:25:08.605Z,1005.27
2017-11-11T03:26:08.551Z,1005.30
2017-11-11T03:27:08.525Z,1005.27
2017-11-11T03:28:08.538Z,1005.31
2017-11-11T03:29:08.478Z,1005.30
2017-11-11T03:30:08.460Z,1005.29
2017-11-11T03:31:08.459Z,1005.28
2017-11-11T03:32:08.466Z,1005.24
2017-11-11T03:33:08.400Z,1005.17
2017-11-11T03:34:08.366Z,1005.15
2017-11-11T03:35:08.343Z,1005.13
2017-11-11T03:36:08.320Z,1005.13
2017-11-11T03:37:08.338Z,1005.11
2017-11-11T03:38:08.328Z,1005.10
2017-11-11T03:39:08.258Z,1005.13
2017-11-11T03:40:08.232Z,1005.10
2017-11-11T03:41:08.206Z,1005.14
2017-11-11T03:42:08.185Z,1005.09
2017-11-11T03:43:08.209Z,1005.07
2017-11-11T03:44:08.149Z,1004.98
2017-11-11T03:45:08.115Z,1004.95
2017-11-11T03:46:08.093Z,1004.90
2017-11-11T03:47:08.068Z,1004.97
2017-11-11T03:48:08.088Z,1004.93
2017-11-11T03:49:08.021Z,1004.93
2017-11-11T03:50:07.998Z,1004.88
2017-11-11T03:51:08.018Z,1004.90
2017-11-11T03:52:07.954Z,1004.87
2017-11-11T03:53:07.927Z,1004.87
2017-11-11T03:54:07.957Z,1004.88
2017-11-11T03:55:07.886Z,1004.90
2017-11-11T03:56:17.527Z,1004.82
2017-11-11T03:57:17.566Z,1004.79
2017-11-11T03:58:07.818Z,1004.87
2017-11-11T03:59:07.845Z,1004.87
2017-11-11T04:00:07.771Z,1004.88
2017-11-11T04:01:07.745Z,1004.84
2017-11-11T04:02:07.731Z,1004.83
2017-11-11T04:03:07.700Z,1004.83
2017-11-11T04:04:07.708Z,1004.85
2017-11-11T04:05:07.657Z,1004.85
2017-11-11T04:06:07.679Z,1004.76
2017-11-11T04:07:07.605Z,1004.75
2017-11-11T04:08:07.588Z,1004.78
2017-11-11T04:09:07.560Z,1004.76
2017-11-11T04:10:07.549Z,1004.81
2017-11-11T04:11:07.551Z,1004.82
2017-11-11T04:12:07.489Z,1004.78
2017-11-11T04:13:07.466Z,1004.76
2017-11-11T04:14:07.445Z,1004.76
2017-11-11T04:15:07.420Z,1004.77
2017-11-11T04:16:07.433Z,1004.76
2017-11-11T04:17:07.373Z,1004.77
2017-11-11T04:18:07.350Z,1004.80
2017-11-11T04:19:07.327Z,1004.74
2017-11-11T04:20:07.346Z,1004.79
2017-11-11T04:21:07.280Z,1004.78
2017-11-11T04:22:07.260Z,1004.74
2017-11-11T04:23:07.254Z,1004.75
2017-11-11T04:24:07.213Z,1004.76
2017-11-11T04:25:07.224Z,1004.74
2017-11-11T04:26:07.207Z,1004.75
2017-11-11T04:27:07.141Z,1004.74
2017-11-11T04:28:07.117Z,1004.69
2017-11-11T04:29:07.098Z,1004.68
2017-11-11T04:30:07.073Z,1004.66
2017-11-11T04:31:07.084Z,1004.67
2017-11-11T04:32:07.075Z,1004.67
2017-11-11T04:33:07.005Z,1004.72
2017-11-11T04:34:06.977Z,1004.67
2017-11-11T04:35:06.956Z,1004.67
2017-11-11T04:36:06.933Z,1004.72
2017-11-11T04:37:06.968Z,1004.73
2017-11-11T04:38:06.892Z,1004.71
2017-11-11T04:39:06.865Z,1004.70
2017-11-11T04:40:06.843Z,1004.73
2017-11-11T04:41:06.827Z,1004.67
2017-11-11T04:42:06.831Z,1004.69
2017-11-11T04:43:06.809Z,1004.65
2017-11-11T04:44:06.747Z,1004.66
2017-11-11T04:45:06.725Z,1004.70
2017-11-11T04:46:06.703Z,1004.70
2017-11-11T04:47:06.680Z,1004.73
2017-11-11T04:48:14.663Z,1004.60
2017-11-11T04:49:06.671Z,1004.62
2017-11-11T04:50:06.610Z,1004.62
2017-11-11T04:51:06.588Z,1004.64
2017-11-11T04:52:06.570Z,1004.67
2017-11-11T04:53:06.539Z,1004.69
2017-11-11T04:54:06.554Z,1004.73
2017-11-11T04:55:06.501Z,1004.65
2017-11-11T04:56:06.527Z,1004.54
2017-11-11T04:57:06.448Z,1004.55
2017-11-11T04:58:06.429Z,1004.53
2017-11-11T04:59:06.403Z,1004.46
2017-11-11T05:00:06.393Z,1004.35
2017-11-11T05:01:06.403Z,1004.40
2017-11-11T05:02:06.338Z,1004.48
2017-11-11T05:03:06.319Z,1004.41
2017-11-11T05:04:06.292Z,1004.35
2017-11-11T05:05:06.273Z,1004.33
2017-11-11T05:06:06.286Z,1004.32
2017-11-11T05:07:06.225Z,1004.34
2017-11-11T05:08:06.239Z,1004.37
2017-11-11T05:09:06.173Z,1004.44
2017-11-11T05:10:06.151Z,1004.38
2017-11-11T05:11:06.130Z,1004.36
2017-11-11T05:12:06.113Z,1004.33
2017-11-11T05:13:06.143Z,1004.31
2017-11-11T05:14:06.059Z,1004.30
2017-11-11T05:15:06.051Z,1004.27
2017-11-11T05:16:06.015Z,1004.29
2017-11-11T05:17:06.004Z,1004.25
2017-11-11T05:18:06.012Z,1004.25
2017-11-11T05:19:06.004Z,1004.26
2017-11-11T05:20:05.935Z,1004.19
2017-11-11T05:21:05.901Z,1004.21
2017-11-11T05:22:05.885Z,1004.28
2017-11-11T05:23:05.856Z,1004.29
2017-11-11T05:24:05.886Z,1004.31
2017-11-11T05:25:05.815Z,1004.32
2017-11-11T05:26:05.797Z,1004.31
2017-11-11T05:27:05.780Z,1004.31
2017-11-11T05:28:05.744Z,1004.36
2017-11-11T05:29:05.768Z,1004.34
2017-11-11T05:30:05.699Z,1004.29
2017-11-11T05:31:05.673Z,1004.27
2017-11-11T05:32:05.654Z,1004.25
2017-11-11T05:33:05.628Z,1004.25
2017-11-11T05:34:05.654Z,1004.24
2017-11-11T05:35:05.583Z,1004.18
2017-11-11T05:36:05.561Z,1004.15
2017-11-11T05:37:05.539Z,1004.07
2017-11-11T05:38:15.148Z,1004.02
2017-11-11T05:39:13.226Z,1004.00
2017-11-11T05:40:05.469Z,1004.03
2017-11-11T05:41:05.444Z,1004.00
2017-11-11T05:42:05.464Z,1004.03
2017-11-11T05:43:05.449Z,1004.02
2017-11-11T05:44:05.376Z,1004.00
2017-11-11T05:45:05.361Z,1003.98
2017-11-11T05:46:05.341Z,1003.97
2017-11-11T05:47:05.308Z,1003.93
2017-11-11T05:48:05.341Z,1003.91
2017-11-11T05:49:05.262Z,1003.88
2017-11-11T05:50:05.240Z,1003.84
2017-11-11T05:51:05.216Z,1003.81
2017-11-11T05:52:05.192Z,1003.82
2017-11-11T05:53:05.210Z,1003.76
2017-11-11T05:54:05.149Z,1003.82
2017-11-11T05:55:05.126Z,1003.76
2017-11-11T05:56:05.106Z,1003.74
2017-11-11T05:57:05.080Z,1003.81
2017-11-11T05:58:05.118Z,1003.81
2017-11-11T05:59:05.043Z,1003.83
2017-11-11T06:00:05.058Z,1003.82
2017-11-11T06:01:04.989Z,1003.80
2017-11-11T06:02:04.997Z,1003.81
2017-11-11T06:03:04.954Z,1003.81
2017-11-11T06:04:04.918Z,1003.79
2017-11-11T06:05:04.943Z,1003.79
2017-11-11T06:06:04.923Z,1003.76
2017-11-11T06:07:04.849Z,1003.80
2017-11-11T06:08:04.848Z,1003.78
2017-11-11T06:09:04.809Z,1003.75
2017-11-11T06:10:04.780Z,1003.76
2017-11-11T06:11:04.801Z,1003.74
2017-11-11T06:12:04.746Z,1003.74
2017-11-11T06:13:04.709Z,1003.79
2017-11-11T06:14:04.695Z,1003.81
2017-11-11T06:15:04.667Z,1003.80
2017-11-11T06:16:04.688Z,1003.84
2017-11-11T06:17:04.617Z,1003.85
2017-11-11T06:18:04.600Z,1003.81
2017-11-11T06:19:04.622Z,1003.76
2017-11-11T06:20:04.588Z,1003.84
2017-11-11T06:21:04.586Z,1003.71
2017-11-11T06:22:04.520Z,1003.73
2017-11-11T06:23:04.486Z,1003.74
2017-11-11T06:24:04.473Z,1003.76
2017-11-11T06:25:04.436Z,1003.77
2017-11-11T06:26:04.466Z,1003.72
2017-11-11T06:27:04.510Z,1003.71
2017-11-11T06:28:04.369Z,1003.67
2017-11-11T06:29:13.211Z,1003.64
2017-11-11T06:30:14.250Z,1003.64
2017-11-11T06:31:04.301Z,1003.71
2017-11-11T06:32:04.278Z,1003.65
2017-11-11T06:33:04.296Z,1003.62
2017-11-11T06:34:04.249Z,1003.66
2017-11-11T06:35:04.211Z,1003.65
2017-11-11T06:36:04.242Z,1003.62
2017-11-11T06:37:04.161Z,1003.58
2017-11-11T06:38:04.181Z,1003.58
2017-11-11T06:39:04.137Z,1003.55
2017-11-11T06:40:04.113Z,1003.60
2017-11-11T06:41:04.092Z,1003.59
2017-11-11T06:42:04.090Z,1003.58
2017-11-11T06:43:04.027Z,1003.57
2017-11-11T06:44:04.001Z,1003.56
2017-11-11T06:45:04.028Z,1003.52
2017-11-11T06:46:03.964Z,1003.50
2017-11-11T06:47:03.932Z,1003.48
2017-11-11T06:48:03.912Z,1003.49
2017-11-11T06:49:03.887Z,1003.42
2017-11-11T06:50:03.906Z,1003.44
2017-11-11T06:51:03.893Z,1003.41
2017-11-11T06:52:03.818Z,1003.43
2017-11-11T06:53:03.797Z,1003.41
2017-11-11T06:54:13.788Z,1003.36
2017-11-11T06:55:03.750Z,1003.41
2017-11-11T06:56:03.771Z,1003.42
2017-11-11T06:57:03.716Z,1003.42
2017-11-11T06:58:03.679Z,1003.38
2017-11-11T06:59:03.663Z,1003.36
2017-11-11T07:00:03.686Z,1003.32
2017-11-11T07:01:03.614Z,1003.35
2017-11-11T07:02:03.592Z,1003.39
2017-11-11T07:03:03.569Z,1003.35
2017-11-11T07:04:03.549Z,1003.39
2017-11-11T07:05:03.733Z,1003.37
2017-11-11T07:06:03.499Z,1003.41
2017-11-11T07:07:03.481Z,1003.40
2017-11-11T07:08:03.455Z,1003.37
2017-11-11T07:09:03.432Z,1003.36
2017-11-11T07:10:03.470Z,1003.32
2017-11-11T07:11:03.402Z,1003.32
2017-11-11T07:12:03.373Z,1003.38
2017-11-11T07:13:03.341Z,1003.35
2017-11-11T07:14:03.407Z,1003.41
2017-11-11T07:15:03.339Z,1003.36
2017-11-11T07:16:03.276Z,1003.37
2017-11-11T07:17:03.255Z,1003.41
2017-11-11T07:18:03.228Z,1003.43
2017-11-11T07:19:03.206Z,1003.42
2017-11-11T07:20:10.892Z,1003.38
2017-11-11T07:21:15.366Z,1003.36
2017-11-11T07:22:03.808Z,1003.39
2017-11-11T07:23:03.299Z,1003.35
2017-11-11T07:24:03.095Z,1003.34
2017-11-11T07:25:03.117Z,1003.36
2017-11-11T07:26:03.091Z,1003.31
2017-11-11T07:27:03.029Z,1003.29
2017-11-11T07:28:03.011Z,1003.28
2017-11-11T07:29:03.026Z,1003.32
2017-11-11T07:30:02.959Z,1003.29
2017-11-11T07:31:02.939Z,1003.31
2017-11-11T07:32:02.915Z,1003.30
2017-11-11T07:33:02.892Z,1003.32
2017-11-11T07:34:02.910Z,1003.28
2017-11-11T07:35:02.849Z,1003.29
2017-11-11T07:36:02.826Z,1003.28
2017-11-11T07:37:02.802Z,1003.31
2017-11-11T07:38:02.810Z,1003.29
2017-11-11T07:39:02.805Z,1003.29
2017-11-11T07:40:02.738Z,1003.25
2017-11-11T07:41:02.717Z,1003.25
2017-11-11T07:42:02.696Z,1003.29
2017-11-11T07:43:02.670Z,1003.25
2017-11-11T07:44:02.691Z,1003.19
2017-11-11T07:45:02.626Z,1003.25
2017-11-11T07:46:02.607Z,1003.24
2017-11-11T07:47:02.592Z,1003.19
2017-11-11T07:48:02.561Z,1003.23
2017-11-11T07:49:02.592Z,1003.22
2017-11-11T07:50:02.521Z,1003.24
2017-11-11T07:51:02.495Z,1003.21
2017-11-11T07:52:02.472Z,1003.22
2017-11-11T07:53:02.450Z,1003.22
2017-11-11T07:54:02.486Z,1003.20
2017-11-11T07:55:02.410Z,1003.22
2017-11-11T07:56:02.387Z,1003.19
2017-11-11T07:57:02.364Z,1003.16
2017-11-11T07:58:02.341Z,1003.16
2017-11-11T07:59:02.367Z,1003.15
2017-11-11T08:00:02.295Z,1003.13
2017-11-11T08:01:02.278Z,1003.09
2017-11-11T08:02:02.251Z,1003.10
2017-11-11T08:03:02.230Z,1003.12
2017-11-11T08:04:02.250Z,1003.14
2017-11-11T08:05:02.191Z,1003.10
2017-11-11T08:06:02.166Z,1003.17
2017-11-11T08:07:02.198Z,1003.18
2017-11-11T08:08:02.122Z,1003.10
2017-11-11T08:09:02.102Z,1003.05
2017-11-11T08:10:02.081Z,1002.99
2017-11-11T08:11:11.899Z,1002.93
2017-11-11T08:12:09.978Z,1002.96
2017-11-11T08:13:02.012Z,1003.11
2017-11-11T08:14:02.034Z,1003.08
2017-11-11T08:15:01.967Z,1003.10
2017-11-11T08:16:01.994Z,1003.13
2017-11-11T08:17:01.927Z,1003.13
2017-11-11T08:18:01.903Z,1003.09
2017-11-11T08:19:01.881Z,1003.09
2017-11-11T08:20:01.862Z,1003.25
2017-11-11T08:21:01.881Z,1003.24
2017-11-11T08:22:01.816Z,1003.11
2017-11-11T08:23:01.802Z,1003.08
2017-11-11T08:24:01.773Z,1003.09
2017-11-11T08:25:01.803Z,1003.08
2017-11-11T08:26:01.745Z,1003.10
2017-11-11T08:27:01.709Z,1003.14
2017-11-11T08:28:01.689Z,1003.11
2017-11-11T08:29:01.672Z,1003.05
2017-11-11T08:30:01.687Z,1002.96
2017-11-11T08:31:01.625Z,1002.99
2017-11-11T08:32:01.604Z,1002.96
2017-11-11T08:33:01.581Z,1002.88
2017-11-11T08:34:01.567Z,1002.91
2017-11-11T08:35:01.583Z,1002.97
2017-11-11T08:36:01.569Z,1002.98
2017-11-11T08:37:01.499Z,1002.96
2017-11-11T08:38:01.479Z,1002.94
2017-11-11T08:39:01.484Z,1002.93
2017-11-11T08:40:01.440Z,1002.99
2017-11-11T08:41:01.456Z,1002.93
2017-11-11T08:42:01.441Z,1002.91
2017-11-11T08:43:01.371Z,1002.89
2017-11-11T08:44:01.351Z,1002.90
2017-11-11T08:45:01.331Z,1002.92
2017-11-11T08:46:01.315Z,1002.89
2017-11-11T08:47:01.327Z,1002.82
2017-11-11T08:48:01.266Z,1002.87
2017-11-11T08:49:01.249Z,1002.83
2017-11-11T08:50:01.224Z,1002.80
2017-11-11T08:51:01.203Z,1002.80
2017-11-11T08:52:01.241Z,1002.84
2017-11-11T08:53:01.165Z,1002.85
2017-11-11T08:54:01.142Z,1002.78
2017-11-11T08:55:01.120Z,1002.71
2017-11-11T08:56:01.102Z,1002.74
2017-11-11T08:57:01.121Z,1002.78
2017-11-11T08:58:01.062Z,1002.73
2017-11-11T08:59:01.077Z,1002.70
2017-11-11T09:00:01.024Z,1002.74
2017-11-11T09:01:01.011Z,1002.69
2017-11-11T09:02:10.971Z,1002.64
2017-11-11T09:03:10.509Z,1002.64
2017-11-11T09:04:00.975Z,1002.68
2017-11-11T09:05:00.910Z,1002.70
2017-11-11T09:06:00.890Z,1002.66
2017-11-11T09:07:00.869Z,1002.75
2017-11-11T09:08:00.900Z,1002.72
2017-11-11T09:09:00.830Z,1002.65
2017-11-11T09:10:00.807Z,1002.73
2017-11-11T09:11:00.785Z,1002.64
2017-11-11T09:12:00.767Z,1002.67
2017-11-11T09:13:00.791Z,1002.73
2017-11-11T09:14:00.721Z,1002.74
2017-11-11T09:15:00.703Z,1002.71
2017-11-11T09:16:00.700Z,1002.74
2017-11-11T09:17:00.661Z,1002.77
2017-11-11T09:18:00.691Z,1002.74
2017-11-11T09:19:00.617Z,1002.77
2017-11-11T09:20:00.598Z,1002.72
2017-11-11T09:21:00.578Z,1002.75
2017-11-11T09:22:00.553Z,1002.78
2017-11-11T09:23:00.585Z,1002.78
2017-11-11T09:24:00.513Z,1002.80
2017-11-11T09:25:00.490Z,1002.81
2017-11-11T09:26:00.480Z,1002.73
2017-11-11T09:27:00.447Z,1002.72
2017-11-11T09:28:00.474Z,1002.65
2017-11-11T09:29:00.472Z,1002.68
2017-11-11T09:30:00.389Z,1002.61
2017-11-11T09:31:00.362Z,1002.63
2017-11-11T09:32:00.345Z,1002.70
2017-11-11T09:33:00.322Z,1002.70
2017-11-11T09:34:00.377Z,1002.64
2017-11-11T09:35:00.283Z,1002.68
2017-11-11T09:36:00.260Z,1002.70
2017-11-11T09:37:00.238Z,1002.64
2017-11-11T09:38:00.220Z,1002.58
2017-11-11T09:39:00.237Z,1002.63
2017-11-11T09:40:00.225Z,1002.60
2017-11-11T09:41:00.156Z,1002.61
2017-11-11T09:42:00.135Z,1002.58
2017-11-11T09:43:00.116Z,1002.61
2017-11-11T09:44:00.091Z,1002.60
2017-11-11T09:45:00.130Z,1002.56
2017-11-11T09:46:00.053Z,1002.58
2017-11-11T09:47:00.031Z,1002.56
2017-11-11T09:48:00.011Z,1002.58
2017-11-11T09:48:59.991Z,1002.54
2017-11-11T09:50:00.028Z,1002.59
2017-11-11T09:50:59.945Z,1002.56
2017-11-11T09:51:59.925Z,1002.52
2017-11-11T09:52:59.906Z,1002.50
2017-11-11T09:54:07.607Z,1002.44
2017-11-11T09:54:59.866Z,1002.46
2017-11-11T09:55:59.881Z,1002.47
2017-11-11T09:56:59.822Z,1002.42
2017-11-11T09:57:59.803Z,1002.38
2017-11-11T09:58:59.827Z,1002.40
2017-11-11T09:59:59.764Z,1002.36
2017-11-11T10:00:59.736Z,1002.38
2017-11-11T10:01:59.717Z,1002.36
2017-11-11T10:02:59.696Z,1002.28
2017-11-11T10:03:59.723Z,1002.29
2017-11-11T10:04:59.656Z,1002.35
2017-11-11T10:05:59.644Z,1002.29
2017-11-11T10:06:59.611Z,1002.24
2017-11-11T10:07:59.590Z,1002.27
2017-11-11T10:08:59.617Z,1002.30
2017-11-11T10:09:59.557Z,1002.28
2017-11-11T10:10:59.532Z,1002.22
2017-11-11T10:11:59.506Z,1002.21
2017-11-11T10:12:59.542Z,1002.18
2017-11-11T10:13:59.481Z,1002.21
2017-11-11T10:14:59.462Z,1002.19
2017-11-11T10:15:59.432Z,1002.20
2017-11-11T10:16:59.402Z,1002.17
2017-11-11T10:17:59.432Z,1002.15
2017-11-11T10:18:59.362Z,1002.15
2017-11-11T10:19:59.341Z,1002.13
2017-11-11T10:20:59.318Z,1002.02
2017-11-11T10:21:59.297Z,1002.05
2017-11-11T10:22:59.319Z,1002.12
2017-11-11T10:23:59.256Z,1002.10
2017-11-11T10:24:59.249Z,1002.14
2017-11-11T10:25:59.216Z,1002.07
2017-11-11T10:26:59.198Z,1002.09
2017-11-11T10:27:59.221Z,1002.02
2017-11-11T10:28:59.150Z,1002.04
2017-11-11T10:29:59.130Z,1001.99
2017-11-11T10:30:59.108Z,1002.04
2017-11-11T10:31:59.098Z,1002.01
2017-11-11T10:32:59.114Z,1002.02
2017-11-11T10:33:59.050Z,1002.03
2017-11-11T10:34:59.023Z,1001.99
2017-11-11T10:35:59.001Z,1001.95
2017-11-11T10:36:58.992Z,1001.94
2017-11-11T10:37:59.021Z,1001.96
2017-11-11T10:38:58.945Z,1001.95
2017-11-11T10:39:58.921Z,1001.94
2017-11-11T10:40:58.898Z,1001.87
2017-11-11T10:41:58.877Z,1001.85
2017-11-11T10:42:58.912Z,1001.83
2017-11-11T10:43:58.832Z,1001.84
2017-11-11T10:44:58.813Z,1001.85
2017-11-11T10:46:09.595Z,1001.71
2017-11-11T10:46:58.770Z,1001.76
2017-11-11T10:47:58.809Z,1001.80
2017-11-11T10:48:58.729Z,1001.78
2017-11-11T10:49:58.714Z,1001.81
2017-11-11T10:50:58.687Z,1001.86
2017-11-11T10:51:58.664Z,1001.73
2017-11-11T10:52:58.688Z,1001.73
2017-11-11T10:53:58.624Z,1001.73
2017-11-11T10:54:58.650Z,1001.68
2017-11-11T10:55:58.579Z,1001.67
2017-11-11T10:56:58.561Z,1001.69
2017-11-11T10:57:58.540Z,1001.67
2017-11-11T10:58:58.520Z,1001.62
2017-11-11T10:59:58.538Z,1001.64
2017-11-11T11:00:58.475Z,1001.66
2017-11-11T11:01:58.462Z,1001.63
2017-11-11T11:02:58.441Z,1001.56
2017-11-11T11:03:58.414Z,1001.56
2017-11-11T11:04:58.437Z,1001.54
2017-11-11T11:05:58.374Z,1001.57
2017-11-11T11:06:58.395Z,1001.49
2017-11-11T11:07:58.343Z,1001.45
2017-11-11T11:08:58.309Z,1001.45
2017-11-11T11:09:58.303Z,1001.51
2017-11-11T11:10:58.272Z,1001.46
2017-11-11T11:11:58.305Z,1001.46
2017-11-11T11:12:58.294Z,1001.40
2017-11-11T11:13:58.209Z,1001.40
2017-11-11T11:14:58.194Z,1001.42
2017-11-11T11:15:58.175Z,1001.43
2017-11-11T11:16:58.210Z,1001.43
2017-11-11T11:17:58.155Z,1001.41
2017-11-11T11:18:58.109Z,1001.36
2017-11-11T11:19:58.094Z,1001.37
2017-11-11T11:20:58.067Z,1001.33
2017-11-11T11:21:58.091Z,1001.28
2017-11-11T11:22:58.089Z,1001.34
2017-11-11T11:23:58.067Z,1001.31
2017-11-11T11:24:57.991Z,1001.34
2017-11-11T11:25:57.970Z,1001.25
2017-11-11T11:26:57.950Z,1001.24
2017-11-11T11:27:57.977Z,1001.22
2017-11-11T11:28:57.916Z,1001.21
2017-11-11T11:29:57.893Z,1001.13
2017-11-11T11:30:57.871Z,1001.19
2017-11-11T11:31:57.894Z,1001.16
2017-11-11T11:32:57.879Z,1001.16
2017-11-11T11:33:57.871Z,1001.11
2017-11-11T11:34:57.793Z,1001.11
2017-11-11T11:35:57.809Z,1001.11
2017-11-11T11:36:57.771Z,1001.09
2017-11-11T11:37:57.776Z,1001.12
2017-11-11T11:38:57.770Z,1001.10
2017-11-11T11:39:57.693Z,1001.10
2017-11-11T11:40:57.678Z,1001.14
2017-11-11T11:41:57.659Z,1001.15
2017-11-11T11:42:57.818Z,1001.16
2017-11-11T11:43:57.677Z,1001.15
2017-11-11T11:44:57.590Z,1001.16
2017-11-11T11:45:57.576Z,1001.16
2017-11-11T11:46:57.550Z,1001.16
2017-11-11T11:47:57.531Z,1001.16
2017-11-11T11:48:57.568Z,1001.19
2017-11-11T11:49:57.490Z,1001.18
2017-11-11T11:50:57.473Z,1001.14
2017-11-11T11:51:57.780Z,1001.15
2017-11-11T11:52:57.432Z,1001.14
2017-11-11T11:53:58.327Z,1001.12
2017-11-11T11:54:57.390Z,1001.14
2017-11-11T11:55:57.446Z,1001.17
2017-11-11T11:56:57.352Z,1001.16
2017-11-11T11:58:08.157Z,1001.12
2017-11-11T11:59:06.224Z,1001.05
2017-11-11T11:59:57.296Z,1001.09
2017-11-11T12:00:57.267Z,1001.10
2017-11-11T12:01:57.251Z,1001.07
2017-11-11T12:02:57.229Z,1001.07
2017-11-11T12:03:57.265Z,1001.08
2017-11-11T12:04:57.195Z,1001.05